West Ely, Missouri
Current Conditions -  °F | °C
As of 2:55 AM on Friday 31 Oct 2014 (Local Time) from KHAE Reporting Station
Overcast Overcast  
Wind Chill: 43°   Ceiling: 7000
Heat Index: 48°   Visibility: 10mi
Dew Point: 39°   Wind: 13mph
Humidity: 71%   Direction: 340°NNW
Pressure: 30.15"   Gusts: 18mph
Location:  39.7145°N, 91.4209°W
Report Text: KHAE 310755Z AUTO 34011G16KT 10SM BKN070 OVC100 09/04 A3015 RMK AO2
Loading
Personal Weather Stations






























Interactive Weather Map
Tropical Storm Tracking
New forecast layout! Learn more

10-Day Weather Forecast

Advertisements
Track Severe Weather on mobile